sensor_id;sensor_type;location;lat;lon;timestamp;temperature;humidity
32524;DHT22;18965;52.242;20.886;2023-04-06T00:00:52;4.50;53.00
32524;DHT22;18965;52.242;20.886;2023-04-06T00:03:18;4.50;53.20
32524;DHT22;18965;52.242;20.886;2023-04-06T00:05:44;4.50;53.30
32524;DHT22;18965;52.242;20.886;2023-04-06T00:08:10;4.50;53.40
32524;DHT22;18965;52.242;20.886;2023-04-06T00:10:36;4.50;53.50
32524;DHT22;18965;52.242;20.886;2023-04-06T00:13:02;4.50;53.60
32524;DHT22;18965;52.242;20.886;2023-04-06T00:15:28;4.50;53.60
32524;DHT22;18965;52.242;20.886;2023-04-06T00:17:53;4.60;53.70
32524;DHT22;18965;52.242;20.886;2023-04-06T00:20:19;4.50;53.70
32524;DHT22;18965;52.242;20.886;2023-04-06T00:22:45;4.50;53.70
32524;DHT22;18965;52.242;20.886;2023-04-06T00:25:11;4.50;53.40
32524;DHT22;18965;52.242;20.886;2023-04-06T00:27:38;4.50;53.50
32524;DHT22;18965;52.242;20.886;2023-04-06T00:30:04;4.50;53.50
32524;DHT22;18965;52.242;20.886;2023-04-06T00:32:31;4.50;53.50
32524;DHT22;18965;52.242;20.886;2023-04-06T00:34:57;4.40;53.30
32524;DHT22;18965;52.242;20.886;2023-04-06T00:37:23;4.50;53.50
32524;DHT22;18965;52.242;20.886;2023-04-06T00:39:49;4.50;53.50
32524;DHT22;18965;52.242;20.886;2023-04-06T00:42:17;4.50;53.20
32524;DHT22;18965;52.242;20.886;2023-04-06T00:44:51;4.50;53.20
32524;DHT22;18965;52.242;20.886;2023-04-06T00:47:17;4.50;53.10
32524;DHT22;18965;52.242;20.886;2023-04-06T00:49:42;4.40;53.00
32524;DHT22;18965;52.242;20.886;2023-04-06T00:52:08;4.50;53.10
32524;DHT22;18965;52.242;20.886;2023-04-06T00:54:34;4.50;53.20
32524;DHT22;18965;52.242;20.886;2023-04-06T00:57:00;4.50;53.30
32524;DHT22;18965;52.242;20.886;2023-04-06T00:59:27;4.50;53.30
32524;DHT22;18965;52.242;20.886;2023-04-06T01:01:53;4.50;53.20
32524;DHT22;18965;52.242;20.886;2023-04-06T01:04:19;4.50;53.10
32524;DHT22;18965;52.242;20.886;2023-04-06T01:06:44;4.40;53.00
32524;DHT22;18965;52.242;20.886;2023-04-06T01:09:11;4.50;53.00
32524;DHT22;18965;52.242;20.886;2023-04-06T01:11:36;4.40;53.00
32524;DHT22;18965;52.242;20.886;2023-04-06T01:14:03;4.40;53.00
32524;DHT22;18965;52.242;20.886;2023-04-06T01:16:29;4.40;53.10
32524;DHT22;18965;52.242;20.886;2023-04-06T01:18:54;4.40;53.20
32524;DHT22;18965;52.242;20.886;2023-04-06T01:21:20;4.50;53.40
32524;DHT22;18965;52.242;20.886;2023-04-06T01:23:46;4.50;53.40
32524;DHT22;18965;52.242;20.886;2023-04-06T01:26:12;4.50;53.50
32524;DHT22;18965;52.242;20.886;2023-04-06T01:28:38;4.50;53.70
32524;DHT22;18965;52.242;20.886;2023-04-06T01:31:09;4.50;53.60
32524;DHT22;18965;52.242;20.886;2023-04-06T01:33:35;4.50;53.60
32524;DHT22;18965;52.242;20.886;2023-04-06T01:36:01;4.60;53.80
32524;DHT22;18965;52.242;20.886;2023-04-06T01:38:27;4.60;54.00
32524;DHT22;18965;52.242;20.886;2023-04-06T01:40:53;4.60;53.90
32524;DHT22;18965;52.242;20.886;2023-04-06T01:43:19;4.60;53.90
32524;DHT22;18965;52.242;20.886;2023-04-06T01:45:44;4.60;54.00
32524;DHT22;18965;52.242;20.886;2023-04-06T01:48:10;4.60;54.10
32524;DHT22;18965;52.242;20.886;2023-04-06T01:50:36;4.60;54.10
32524;DHT22;18965;52.242;20.886;2023-04-06T01:53:01;4.60;54.10
32524;DHT22;18965;52.242;20.886;2023-04-06T01:55:27;4.60;54.30
32524;DHT22;18965;52.242;20.886;2023-04-06T01:57:53;4.60;54.30
32524;DHT22;18965;52.242;20.886;2023-04-06T02:00:18;4.60;54.40
32524;DHT22;18965;52.242;20.886;2023-04-06T02:02:44;4.60;54.50
32524;DHT22;18965;52.242;20.886;2023-04-06T02:05:11;4.70;54.80
32524;DHT22;18965;52.242;20.886;2023-04-06T02:07:36;4.70;54.70
32524;DHT22;18965;52.242;20.886;2023-04-06T02:10:03;4.70;54.70
32524;DHT22;18965;52.242;20.886;2023-04-06T02:12:29;4.70;54.70
32524;DHT22;18965;52.242;20.886;2023-04-06T02:14:54;4.70;54.70
32524;DHT22;18965;52.242;20.886;2023-04-06T02:17:20;4.70;54.80
32524;DHT22;18965;52.242;20.886;2023-04-06T02:19:46;4.60;54.80
32524;DHT22;18965;52.242;20.886;2023-04-06T02:22:12;4.70;54.90
32524;DHT22;18965;52.242;20.886;2023-04-06T02:24:37;4.70;55.00
32524;DHT22;18965;52.242;20.886;2023-04-06T02:27:03;4.60;55.00
32524;DHT22;18965;52.242;20.886;2023-04-06T02:29:29;4.60;55.00
32524;DHT22;18965;52.242;20.886;2023-04-06T02:31:54;4.60;55.10
32524;DHT22;18965;52.242;20.886;2023-04-06T02:34:20;4.60;55.10
32524;DHT22;18965;52.242;20.886;2023-04-06T02:36:46;4.60;55.20
32524;DHT22;18965;52.242;20.886;2023-04-06T02:39:12;4.60;55.90
32524;DHT22;18965;52.242;20.886;2023-04-06T02:41:39;4.60;55.30
32524;DHT22;18965;52.242;20.886;2023-04-06T02:44:07;4.50;55.30
32524;DHT22;18965;52.242;20.886;2023-04-06T02:46:33;4.50;55.40
32524;DHT22;18965;52.242;20.886;2023-04-06T02:48:59;4.50;55.40
32524;DHT22;18965;52.242;20.886;2023-04-06T02:51:26;4.50;55.50
32524;DHT22;18965;52.242;20.886;2023-04-06T02:53:52;4.50;55.60
32524;DHT22;18965;52.242;20.886;2023-04-06T02:56:18;4.50;55.60
32524;DHT22;18965;52.242;20.886;2023-04-06T02:58:44;4.40;55.60
32524;DHT22;18965;52.242;20.886;2023-04-06T03:01:10;4.40;55.70
32524;DHT22;18965;52.242;20.886;2023-04-06T03:03:35;4.40;55.80
32524;DHT22;18965;52.242;20.886;2023-04-06T03:06:01;4.40;55.80
32524;DHT22;18965;52.242;20.886;2023-04-06T03:08:28;4.40;55.90
32524;DHT22;18965;52.242;20.886;2023-04-06T03:10:54;4.30;55.90
32524;DHT22;18965;52.242;20.886;2023-04-06T03:13:20;4.30;56.00
32524;DHT22;18965;52.242;20.886;2023-04-06T03:15:46;4.30;56.00
32524;DHT22;18965;52.242;20.886;2023-04-06T03:18:12;4.20;56.10
32524;DHT22;18965;52.242;20.886;2023-04-06T03:20:37;4.20;56.20
32524;DHT22;18965;52.242;20.886;2023-04-06T03:23:03;4.20;56.30
32524;DHT22;18965;52.242;20.886;2023-04-06T03:25:29;4.20;56.40
32524;DHT22;18965;52.242;20.886;2023-04-06T03:27:56;4.20;56.50
32524;DHT22;18965;52.242;20.886;2023-04-06T03:30:21;4.20;56.60
32524;DHT22;18965;52.242;20.886;2023-04-06T03:32:47;4.10;56.70
32524;DHT22;18965;52.242;20.886;2023-04-06T03:35:13;4.10;56.80
32524;DHT22;18965;52.242;20.886;2023-04-06T03:37:38;4.10;56.80
32524;DHT22;18965;52.242;20.886;2023-04-06T03:40:05;4.00;56.90
32524;DHT22;18965;52.242;20.886;2023-04-06T03:42:31;4.10;57.00
32524;DHT22;18965;52.242;20.886;2023-04-06T03:44:58;4.10;57.20
32524;DHT22;18965;52.242;20.886;2023-04-06T03:47:24;4.00;57.20
32524;DHT22;18965;52.242;20.886;2023-04-06T03:49:50;4.00;57.30
32524;DHT22;18965;52.242;20.886;2023-04-06T03:52:16;3.90;57.30
32524;DHT22;18965;52.242;20.886;2023-04-06T03:54:42;3.90;58.00
32524;DHT22;18965;52.242;20.886;2023-04-06T03:57:07;3.80;57.60
32524;DHT22;18965;52.242;20.886;2023-04-06T03:59:33;3.80;57.70
32524;DHT22;18965;52.242;20.886;2023-04-06T04:01:59;3.80;57.70
32524;DHT22;18965;52.242;20.886;2023-04-06T04:04:24;3.80;57.80
32524;DHT22;18965;52.242;20.886;2023-04-06T04:06:50;3.80;58.00
32524;DHT22;18965;52.242;20.886;2023-04-06T04:09:16;3.80;58.20
32524;DHT22;18965;52.242;20.886;2023-04-06T04:11:41;3.80;58.20
32524;DHT22;18965;52.242;20.886;2023-04-06T04:14:07;3.70;58.20
32524;DHT22;18965;52.242;20.886;2023-04-06T04:16:33;3.80;58.40
32524;DHT22;18965;52.242;20.886;2023-04-06T04:18:59;3.80;58.50
32524;DHT22;18965;52.242;20.886;2023-04-06T04:21:24;3.80;58.60
32524;DHT22;18965;52.242;20.886;2023-04-06T04:23:51;3.80;58.80
32524;DHT22;18965;52.242;20.886;2023-04-06T04:26:18;3.80;58.70
32524;DHT22;18965;52.242;20.886;2023-04-06T04:28:44;3.80;58.80
32524;DHT22;18965;52.242;20.886;2023-04-06T04:31:09;3.90;58.80
32524;DHT22;18965;52.242;20.886;2023-04-06T04:33:35;3.90;58.80
32524;DHT22;18965;52.242;20.886;2023-04-06T04:36:01;3.90;58.80
32524;DHT22;18965;52.242;20.886;2023-04-06T04:38:27;3.90;59.50
32524;DHT22;18965;52.242;20.886;2023-04-06T04:40:52;4.00;58.90
32524;DHT22;18965;52.242;20.886;2023-04-06T04:43:18;4.00;58.90
32524;DHT22;18965;52.242;20.886;2023-04-06T04:45:44;4.00;59.00
32524;DHT22;18965;52.242;20.886;2023-04-06T04:48:09;4.00;59.00
32524;DHT22;18965;52.242;20.886;2023-04-06T04:50:36;4.10;59.00
32524;DHT22;18965;52.242;20.886;2023-04-06T04:53:01;4.10;59.10
32524;DHT22;18965;52.242;20.886;2023-04-06T04:55:27;4.10;59.10
32524;DHT22;18965;52.242;20.886;2023-04-06T04:57:54;4.10;59.10
32524;DHT22;18965;52.242;20.886;2023-04-06T05:00:20;4.20;59.10
32524;DHT22;18965;52.242;20.886;2023-04-06T05:02:46;4.20;59.20
32524;DHT22;18965;52.242;20.886;2023-04-06T05:05:12;4.20;59.10
32524;DHT22;18965;52.242;20.886;2023-04-06T05:07:37;4.30;59.10
32524;DHT22;18965;52.242;20.886;2023-04-06T05:10:03;4.30;59.10
32524;DHT22;18965;52.242;20.886;2023-04-06T05:12:29;4.30;59.00
32524;DHT22;18965;52.242;20.886;2023-04-06T05:14:55;4.40;59.10
32524;DHT22;18965;52.242;20.886;2023-04-06T05:17:21;4.50;59.10
32524;DHT22;18965;52.242;20.886;2023-04-06T05:19:46;4.50;59.00
32524;DHT22;18965;52.242;20.886;2023-04-06T05:22:12;4.50;58.90
32524;DHT22;18965;52.242;20.886;2023-04-06T05:24:39;4.50;58.80
32524;DHT22;18965;52.242;20.886;2023-04-06T05:27:05;4.60;59.40
32524;DHT22;18965;52.242;20.886;2023-04-06T05:29:31;4.60;58.70
32524;DHT22;18965;52.242;20.886;2023-04-06T05:31:57;4.60;58.60
32524;DHT22;18965;52.242;20.886;2023-04-06T05:34:23;4.60;58.70
32524;DHT22;18965;52.242;20.886;2023-04-06T05:36:49;4.60;58.70
32524;DHT22;18965;52.242;20.886;2023-04-06T05:39:14;4.70;58.80
32524;DHT22;18965;52.242;20.886;2023-04-06T05:41:40;4.70;58.70
32524;DHT22;18965;52.242;20.886;2023-04-06T05:44:06;4.80;58.60
32524;DHT22;18965;52.242;20.886;2023-04-06T05:46:32;4.90;58.60
32524;DHT22;18965;52.242;20.886;2023-04-06T05:48:58;4.90;58.60
32524;DHT22;18965;52.242;20.886;2023-04-06T05:51:23;5.00;58.50
32524;DHT22;18965;52.242;20.886;2023-04-06T05:53:50;5.10;58.50
32524;DHT22;18965;52.242;20.886;2023-04-06T05:56:16;5.30;58.40
32524;DHT22;18965;52.242;20.886;2023-04-06T05:58:42;5.50;58.30
32524;DHT22;18965;52.242;20.886;2023-04-06T06:01:07;5.60;58.30
32524;DHT22;18965;52.242;20.886;2023-04-06T06:03:34;5.80;57.90
32524;DHT22;18965;52.242;20.886;2023-04-06T06:06:04;5.90;57.80
32524;DHT22;18965;52.242;20.886;2023-04-06T06:08:30;6.10;57.20
32524;DHT22;18965;52.242;20.886;2023-04-06T06:10:56;6.10;56.80
32524;DHT22;18965;52.242;20.886;2023-04-06T06:13:23;6.20;56.80
32524;DHT22;18965;52.242;20.886;2023-04-06T06:15:49;6.30;56.30
32524;DHT22;18965;52.242;20.886;2023-04-06T06:18:15;6.20;56.00
32524;DHT22;18965;52.242;20.886;2023-04-06T06:20:40;6.30;56.40
32524;DHT22;18965;52.242;20.886;2023-04-06T06:23:06;6.30;56.10
32524;DHT22;18965;52.242;20.886;2023-04-06T06:25:32;6.40;56.20
32524;DHT22;18965;52.242;20.886;2023-04-06T06:27:58;6.60;56.30
32524;DHT22;18965;52.242;20.886;2023-04-06T06:30:25;6.60;55.60
32524;DHT22;18965;52.242;20.886;2023-04-06T06:32:51;6.70;55.30
32524;DHT22;18965;52.242;20.886;2023-04-06T06:35:17;6.70;54.90
32524;DHT22;18965;52.242;20.886;2023-04-06T06:37:43;6.80;55.00
32524;DHT22;18965;52.242;20.886;2023-04-06T06:40:15;6.70;54.50
32524;DHT22;18965;52.242;20.886;2023-04-06T06:42:43;6.40;54.60
32524;DHT22;18965;52.242;20.886;2023-04-06T06:45:09;6.80;54.90
32524;DHT22;18965;52.242;20.886;2023-04-06T06:47:35;6.20;54.60
32524;DHT22;18965;52.242;20.886;2023-04-06T06:50:01;7.00;54.30
32524;DHT22;18965;52.242;20.886;2023-04-06T06:52:28;7.00;53.40
32524;DHT22;18965;52.242;20.886;2023-04-06T06:54:54;7.00;54.10
32524;DHT22;18965;52.242;20.886;2023-04-06T06:57:25;7.00;53.50
32524;DHT22;18965;52.242;20.886;2023-04-06T06:59:51;6.90;53.20
32524;DHT22;18965;52.242;20.886;2023-04-06T07:02:16;6.80;53.20
32524;DHT22;18965;52.242;20.886;2023-04-06T07:04:42;6.90;53.50
32524;DHT22;18965;52.242;20.886;2023-04-06T07:07:08;6.70;53.20
32524;DHT22;18965;52.242;20.886;2023-04-06T07:09:38;6.80;53.10
32524;DHT22;18965;52.242;20.886;2023-04-06T07:12:11;6.80;53.50
32524;DHT22;18965;52.242;20.886;2023-04-06T07:14:47;6.80;53.10
32524;DHT22;18965;52.242;20.886;2023-04-06T07:17:13;7.40;53.00
32524;DHT22;18965;52.242;20.886;2023-04-06T07:19:40;6.80;53.00
32524;DHT22;18965;52.242;20.886;2023-04-06T07:22:09;6.90;52.80
32524;DHT22;18965;52.242;20.886;2023-04-06T07:24:35;7.00;53.10
32524;DHT22;18965;52.242;20.886;2023-04-06T07:27:01;6.90;52.80
32524;DHT22;18965;52.242;20.886;2023-04-06T07:29:27;6.80;52.80
32524;DHT22;18965;52.242;20.886;2023-04-06T07:31:53;6.80;53.00
32524;DHT22;18965;52.242;20.886;2023-04-06T07:34:21;6.80;53.20
32524;DHT22;18965;52.242;20.886;2023-04-06T07:36:50;6.70;52.90
32524;DHT22;18965;52.242;20.886;2023-04-06T07:39:18;6.70;53.10
32524;DHT22;18965;52.242;20.886;2023-04-06T07:41:48;6.50;53.20
32524;DHT22;18965;52.242;20.886;2023-04-06T07:44:13;6.60;53.40
32524;DHT22;18965;52.242;20.886;2023-04-06T07:46:39;6.60;53.20
32524;DHT22;18965;52.242;20.886;2023-04-06T07:49:07;6.50;53.40
32524;DHT22;18965;52.242;20.886;2023-04-06T07:51:37;6.50;53.30
32524;DHT22;18965;52.242;20.886;2023-04-06T07:54:04;6.50;53.20
32524;DHT22;18965;52.242;20.886;2023-04-06T07:56:35;5.80;53.50
32524;DHT22;18965;52.242;20.886;2023-04-06T07:59:03;6.60;53.70
32524;DHT22;18965;52.242;20.886;2023-04-06T08:01:29;6.70;53.80
32524;DHT22;18965;52.242;20.886;2023-04-06T08:03:56;6.80;53.60
32524;DHT22;18965;52.242;20.886;2023-04-06T08:06:23;7.70;54.20
32524;DHT22;18965;52.242;20.886;2023-04-06T08:08:50;6.90;53.70
32524;DHT22;18965;52.242;20.886;2023-04-06T08:11:16;7.30;53.90
32524;DHT22;18965;52.242;20.886;2023-04-06T08:13:43;7.10;53.90
32524;DHT22;18965;52.242;20.886;2023-04-06T08:16:10;7.10;53.70
32524;DHT22;18965;52.242;20.886;2023-04-06T08:18:36;7.10;53.60
32524;DHT22;18965;52.242;20.886;2023-04-06T08:21:03;7.10;53.60
32524;DHT22;18965;52.242;20.886;2023-04-06T08:23:29;7.20;53.80
32524;DHT22;18965;52.242;20.886;2023-04-06T08:25:55;7.30;53.90
32524;DHT22;18965;52.242;20.886;2023-04-06T08:28:22;7.50;53.90
32524;DHT22;18965;52.242;20.886;2023-04-06T08:30:48;7.60;53.80
32524;DHT22;18965;52.242;20.886;2023-04-06T08:33:14;7.70;53.40
32524;DHT22;18965;52.242;20.886;2023-04-06T08:35:42;7.60;53.00
32524;DHT22;18965;52.242;20.886;2023-04-06T08:38:08;7.50;53.10
32524;DHT22;18965;52.242;20.886;2023-04-06T08:40:40;7.50;53.40
32524;DHT22;18965;52.242;20.886;2023-04-06T08:43:13;7.50;53.70
32524;DHT22;18965;52.242;20.886;2023-04-06T08:45:43;7.50;54.00
32524;DHT22;18965;52.242;20.886;2023-04-06T08:48:09;7.70;54.20
32524;DHT22;18965;52.242;20.886;2023-04-06T08:50:39;7.90;54.40
32524;DHT22;18965;52.242;20.886;2023-04-06T08:53:06;7.60;54.50
32524;DHT22;18965;52.242;20.886;2023-04-06T08:55:33;7.90;54.90
32524;DHT22;18965;52.242;20.886;2023-04-06T08:58:01;7.70;55.30
32524;DHT22;18965;52.242;20.886;2023-04-06T09:00:33;7.60;55.30
32524;DHT22;18965;52.242;20.886;2023-04-06T09:03:17;7.60;55.40
32524;DHT22;18965;52.242;20.886;2023-04-06T09:05:44;7.50;55.70
32524;DHT22;18965;52.242;20.886;2023-04-06T09:08:13;7.50;56.00
32524;DHT22;18965;52.242;20.886;2023-04-06T09:10:47;7.50;56.10
32524;DHT22;18965;52.242;20.886;2023-04-06T09:13:17;7.50;56.10
32524;DHT22;18965;52.242;20.886;2023-04-06T09:15:45;7.40;56.20
32524;DHT22;18965;52.242;20.886;2023-04-06T09:18:11;7.30;56.30
32524;DHT22;18965;52.242;20.886;2023-04-06T09:20:37;7.30;56.30
32524;DHT22;18965;52.242;20.886;2023-04-06T09:23:03;7.30;56.60
32524;DHT22;18965;52.242;20.886;2023-04-06T09:25:32;7.20;56.90
32524;DHT22;18965;52.242;20.886;2023-04-06T09:28:02;7.20;56.90
32524;DHT22;18965;52.242;20.886;2023-04-06T09:30:28;7.30;56.90
32524;DHT22;18965;52.242;20.886;2023-04-06T09:32:57;7.20;57.10
32524;DHT22;18965;52.242;20.886;2023-04-06T09:35:24;7.20;57.20
32524;DHT22;18965;52.242;20.886;2023-04-06T09:38:09;7.20;57.50
32524;DHT22;18965;52.242;20.886;2023-04-06T09:40:52;7.20;57.40
32524;DHT22;18965;52.242;20.886;2023-04-06T09:43:27;7.70;57.60
32524;DHT22;18965;52.242;20.886;2023-04-06T09:45:55;7.00;57.40
32524;DHT22;18965;52.242;20.886;2023-04-06T09:48:25;6.50;57.30
32524;DHT22;18965;52.242;20.886;2023-04-06T09:50:57;6.80;57.80
32524;DHT22;18965;52.242;20.886;2023-04-06T09:53:41;6.80;58.10
32524;DHT22;18965;52.242;20.886;2023-04-06T09:56:12;5.60;57.60
32524;DHT22;18965;52.242;20.886;2023-04-06T09:58:43;6.70;58.30
32524;DHT22;18965;52.242;20.886;2023-04-06T10:01:13;6.70;59.00
32524;DHT22;18965;52.242;20.886;2023-04-06T10:06:18;6.80;59.40
32524;DHT22;18965;52.242;20.886;2023-04-06T10:08:49;6.80;59.10
32524;DHT22;18965;52.242;20.886;2023-04-06T10:11:16;6.70;59.50
32524;DHT22;18965;52.242;20.886;2023-04-06T10:13:44;6.60;59.50
32524;DHT22;18965;52.242;20.886;2023-04-06T10:16:13;6.60;59.80
32524;DHT22;18965;52.242;20.886;2023-04-06T10:18:46;6.50;60.40
32524;DHT22;18965;52.242;20.886;2023-04-06T10:21:20;6.40;60.70
32524;DHT22;18965;52.242;20.886;2023-04-06T10:23:49;6.60;60.80
32524;DHT22;18965;52.242;20.886;2023-04-06T10:26:19;6.50;61.40
32524;DHT22;18965;52.242;20.886;2023-04-06T10:28:46;6.50;62.00
32524;DHT22;18965;52.242;20.886;2023-04-06T10:31:12;6.60;61.70
32524;DHT22;18965;52.242;20.886;2023-04-06T10:33:39;6.70;61.60
32524;DHT22;18965;52.242;20.886;2023-04-06T10:38:39;6.80;62.00
32524;DHT22;18965;52.242;20.886;2023-04-06T10:41:06;6.70;62.30
32524;DHT22;18965;52.242;20.886;2023-04-06T10:43:36;6.60;62.80
32524;DHT22;18965;52.242;20.886;2023-04-06T10:46:03;6.50;61.90
32524;DHT22;18965;52.242;20.886;2023-04-06T10:48:43;6.50;62.10
32524;DHT22;18965;52.242;20.886;2023-04-06T10:51:15;6.40;62.60
32524;DHT22;18965;52.242;20.886;2023-04-06T10:53:42;6.30;63.10
32524;DHT22;18965;52.242;20.886;2023-04-06T10:56:17;6.30;63.20
32524;DHT22;18965;52.242;20.886;2023-04-06T10:58:51;6.20;63.20
32524;DHT22;18965;52.242;20.886;2023-04-06T11:01:20;6.20;63.40
32524;DHT22;18965;52.242;20.886;2023-04-06T11:03:49;6.20;63.80
32524;DHT22;18965;52.242;20.886;2023-04-06T11:08:51;6.00;64.80
32524;DHT22;18965;52.242;20.886;2023-04-06T11:11:21;6.00;64.10
32524;DHT22;18965;52.242;20.886;2023-04-06T11:13:53;5.30;63.70
32524;DHT22;18965;52.242;20.886;2023-04-06T11:16:22;6.00;64.70
32524;DHT22;18965;52.242;20.886;2023-04-06T11:18:58;6.00;64.30
32524;DHT22;18965;52.242;20.886;2023-04-06T11:21:46;6.00;65.10
32524;DHT22;18965;52.242;20.886;2023-04-06T11:24:24;6.10;65.30
32524;DHT22;18965;52.242;20.886;2023-04-06T11:27:37;5.90;65.60
32524;DHT22;18965;52.242;20.886;2023-04-06T11:30:05;6.00;65.80
32524;DHT22;18965;52.242;20.886;2023-04-06T11:32:43;6.00;65.30
32524;DHT22;18965;52.242;20.886;2023-04-06T11:35:20;6.00;65.80
32524;DHT22;18965;52.242;20.886;2023-04-06T11:38:06;5.90;65.60
32524;DHT22;18965;52.242;20.886;2023-04-06T11:40:37;5.90;65.50
32524;DHT22;18965;52.242;20.886;2023-04-06T11:43:04;6.10;66.00
32524;DHT22;18965;52.242;20.886;2023-04-06T11:45:40;6.10;65.80
32524;DHT22;18965;52.242;20.886;2023-04-06T11:48:18;6.20;66.40
32524;DHT22;18965;52.242;20.886;2023-04-06T11:50:49;6.10;66.20
32524;DHT22;18965;52.242;20.886;2023-04-06T11:53:20;6.20;66.10
32524;DHT22;18965;52.242;20.886;2023-04-06T11:55:46;6.20;66.20
32524;DHT22;18965;52.242;20.886;2023-04-06T11:58:12;6.30;66.20
32524;DHT22;18965;52.242;20.886;2023-04-06T12:00:38;6.30;65.90
32524;DHT22;18965;52.242;20.886;2023-04-06T12:03:04;6.30;66.30
32524;DHT22;18965;52.242;20.886;2023-04-06T12:05:30;6.30;66.40
32524;DHT22;18965;52.242;20.886;2023-04-06T12:07:59;6.20;66.90
32524;DHT22;18965;52.242;20.886;2023-04-06T12:10:26;6.20;66.60
32524;DHT22;18965;52.242;20.886;2023-04-06T12:12:52;6.20;66.90
32524;DHT22;18965;52.242;20.886;2023-04-06T12:15:20;6.20;67.00
32524;DHT22;18965;52.242;20.886;2023-04-06T12:17:47;6.20;66.70
32524;DHT22;18965;52.242;20.886;2023-04-06T12:20:13;6.20;67.20
32524;DHT22;18965;52.242;20.886;2023-04-06T12:22:40;6.20;66.70
32524;DHT22;18965;52.242;20.886;2023-04-06T12:25:06;6.50;66.90
32524;DHT22;18965;52.242;20.886;2023-04-06T12:27:35;6.30;66.40
32524;DHT22;18965;52.242;20.886;2023-04-06T12:30:01;6.20;66.50
32524;DHT22;18965;52.242;20.886;2023-04-06T12:32:27;6.20;66.40
32524;DHT22;18965;52.242;20.886;2023-04-06T12:34:53;6.30;66.20
32524;DHT22;18965;52.242;20.886;2023-04-06T12:37:40;4.90;65.80
32524;DHT22;18965;52.242;20.886;2023-04-06T12:40:13;6.50;66.20
32524;DHT22;18965;52.242;20.886;2023-04-06T12:43:01;6.40;66.20
32524;DHT22;18965;52.242;20.886;2023-04-06T12:45:27;6.40;66.50
32524;DHT22;18965;52.242;20.886;2023-04-06T12:47:58;6.40;66.40
32524;DHT22;18965;52.242;20.886;2023-04-06T12:50:36;6.30;66.00
32524;DHT22;18965;52.242;20.886;2023-04-06T12:53:01;6.40;66.10
32524;DHT22;18965;52.242;20.886;2023-04-06T12:55:30;6.30;66.20
32524;DHT22;18965;52.242;20.886;2023-04-06T12:57:59;6.30;66.10
32524;DHT22;18965;52.242;20.886;2023-04-06T13:00:25;6.30;66.10
32524;DHT22;18965;52.242;20.886;2023-04-06T13:02:51;6.20;66.70
32524;DHT22;18965;52.242;20.886;2023-04-06T13:05:17;6.20;66.50
32524;DHT22;18965;52.242;20.886;2023-04-06T13:07:45;6.10;67.30
32524;DHT22;18965;52.242;20.886;2023-04-06T13:10:12;5.40;67.00
32524;DHT22;18965;52.242;20.886;2023-04-06T13:12:37;6.00;67.20
32524;DHT22;18965;52.242;20.886;2023-04-06T13:15:03;6.00;67.70
32524;DHT22;18965;52.242;20.886;2023-04-06T13:17:29;6.00;67.80
32524;DHT22;18965;52.242;20.886;2023-04-06T13:19:56;5.90;67.80
32524;DHT22;18965;52.242;20.886;2023-04-06T13:22:22;5.90;67.80
32524;DHT22;18965;52.242;20.886;2023-04-06T13:24:51;5.90;68.30
32524;DHT22;18965;52.242;20.886;2023-04-06T13:27:19;5.90;67.90
32524;DHT22;18965;52.242;20.886;2023-04-06T13:29:45;5.90;68.60
32524;DHT22;18965;52.242;20.886;2023-04-06T13:32:10;6.00;68.20
32524;DHT22;18965;52.242;20.886;2023-04-06T13:34:36;6.00;68.70
32524;DHT22;18965;52.242;20.886;2023-04-06T13:37:02;6.00;68.80
32524;DHT22;18965;52.242;20.886;2023-04-06T13:39:28;6.00;68.60
32524;DHT22;18965;52.242;20.886;2023-04-06T13:41:54;5.70;68.60
32524;DHT22;18965;52.242;20.886;2023-04-06T13:44:21;6.00;68.50
32524;DHT22;18965;52.242;20.886;2023-04-06T13:46:48;6.00;68.90
32524;DHT22;18965;52.242;20.886;2023-04-06T13:49:14;6.00;69.60
32524;DHT22;18965;52.242;20.886;2023-04-06T13:51:40;6.00;69.50
32524;DHT22;18965;52.242;20.886;2023-04-06T13:54:07;6.00;69.00
32524;DHT22;18965;52.242;20.886;2023-04-06T13:56:33;6.10;69.10
32524;DHT22;18965;52.242;20.886;2023-04-06T13:58:58;6.10;69.30
32524;DHT22;18965;52.242;20.886;2023-04-06T14:01:24;6.10;69.60
32524;DHT22;18965;52.242;20.886;2023-04-06T14:03:52;6.10;69.50
32524;DHT22;18965;52.242;20.886;2023-04-06T14:06:18;6.10;69.90
32524;DHT22;18965;52.242;20.886;2023-04-06T14:08:43;6.10;70.10
32524;DHT22;18965;52.242;20.886;2023-04-06T14:11:13;6.00;70.00
32524;DHT22;18965;52.242;20.886;2023-04-06T14:13:39;6.00;69.90
32524;DHT22;18965;52.242;20.886;2023-04-06T14:16:09;6.00;69.60
32524;DHT22;18965;52.242;20.886;2023-04-06T14:18:36;5.70;69.50
32524;DHT22;18965;52.242;20.886;2023-04-06T14:21:02;6.10;70.50
32524;DHT22;18965;52.242;20.886;2023-04-06T14:23:28;6.10;70.40
32524;DHT22;18965;52.242;20.886;2023-04-06T14:26:04;6.00;70.30
32524;DHT22;18965;52.242;20.886;2023-04-06T14:28:34;6.00;70.40
32524;DHT22;18965;52.242;20.886;2023-04-06T14:31:01;6.00;70.40
32524;DHT22;18965;52.242;20.886;2023-04-06T14:33:29;5.90;70.80
32524;DHT22;18965;52.242;20.886;2023-04-06T14:35:55;5.90;70.80
32524;DHT22;18965;52.242;20.886;2023-04-06T14:38:24;5.80;71.70
32524;DHT22;18965;52.242;20.886;2023-04-06T14:40:50;5.80;71.30
32524;DHT22;18965;52.242;20.886;2023-04-06T14:43:16;5.70;71.60
32524;DHT22;18965;52.242;20.886;2023-04-06T14:45:42;5.70;71.90
32524;DHT22;18965;52.242;20.886;2023-04-06T14:48:08;5.70;71.70
32524;DHT22;18965;52.242;20.886;2023-04-06T14:50:38;5.70;71.60
32524;DHT22;18965;52.242;20.886;2023-04-06T14:53:04;5.70;72.20
32524;DHT22;18965;52.242;20.886;2023-04-06T14:55:30;5.70;72.10
32524;DHT22;18965;52.242;20.886;2023-04-06T15:00:21;5.80;72.60
32524;DHT22;18965;52.242;20.886;2023-04-06T15:02:47;5.80;72.80
32524;DHT22;18965;52.242;20.886;2023-04-06T15:08:28;5.70;72.30
32524;DHT22;18965;52.242;20.886;2023-04-06T15:19:57;6.30;73.60
32524;DHT22;18965;52.242;20.886;2023-04-06T15:22:23;5.80;72.80
32524;DHT22;18965;52.242;20.886;2023-04-06T15:27:50;5.70;72.80
32524;DHT22;18965;52.242;20.886;2023-04-06T15:30:16;5.90;72.90
32524;DHT22;18965;52.242;20.886;2023-04-06T15:33:03;5.90;72.90
32524;DHT22;18965;52.242;20.886;2023-04-06T15:38:23;6.00;73.10
32524;DHT22;18965;52.242;20.886;2023-04-06T15:40:49;5.90;73.30
32524;DHT22;18965;52.242;20.886;2023-04-06T15:43:16;5.90;73.30
32524;DHT22;18965;52.242;20.886;2023-04-06T15:45:46;5.80;72.80
32524;DHT22;18965;52.242;20.886;2023-04-06T15:48:12;5.80;73.20
32524;DHT22;18965;52.242;20.886;2023-04-06T15:50:44;5.80;73.30
32524;DHT22;18965;52.242;20.886;2023-04-06T15:53:15;5.70;72.90
32524;DHT22;18965;52.242;20.886;2023-04-06T15:55:50;5.80;73.50
32524;DHT22;18965;52.242;20.886;2023-04-06T15:58:16;5.60;73.50
32524;DHT22;18965;52.242;20.886;2023-04-06T16:00:42;5.60;73.30